sensor_id;sensor_type;location;lat;lon;timestamp;P1;durP1;ratioP1;P2;durP2;ratioP2
73107;SDS011;61559;50.476;15.588;2023-07-20T00:00:37;1.60;;;0.80;;
73107;SDS011;61559;50.476;15.588;2023-07-20T00:03:27;1.10;;;0.80;;
73107;SDS011;61559;50.476;15.588;2023-07-20T00:05:58;3.00;;;0.90;;
73107;SDS011;61559;50.476;15.588;2023-07-20T00:08:33;1.50;;;0.80;;
73107;SDS011;61559;50.476;15.588;2023-07-20T00:11:04;1.50;;;0.90;;
73107;SDS011;61559;50.476;15.588;2023-07-20T00:13:35;2.10;;;1.10;;
73107;SDS011;61559;50.476;15.588;2023-07-20T00:16:07;2.70;;;1.00;;
73107;SDS011;61559;50.476;15.588;2023-07-20T00:18:38;2.60;;;1.10;;
73107;SDS011;61559;50.476;15.588;2023-07-20T00:21:09;2.30;;;0.90;;
73107;SDS011;61559;50.476;15.588;2023-07-20T00:23:40;1.70;;;0.80;;
73107;SDS011;61559;50.476;15.588;2023-07-20T00:26:11;1.70;;;0.90;;
73107;SDS011;61559;50.476;15.588;2023-07-20T00:28:42;1.80;;;0.90;;
73107;SDS011;61559;50.476;15.588;2023-07-20T00:31:14;1.80;;;0.90;;
73107;SDS011;61559;50.476;15.588;2023-07-20T00:33:45;0.80;;;0.70;;
73107;SDS011;61559;50.476;15.588;2023-07-20T00:36:16;1.60;;;0.80;;
73107;SDS011;61559;50.476;15.588;2023-07-20T00:38:48;1.70;;;1.10;;
73107;SDS011;61559;50.476;15.588;2023-07-20T00:41:19;1.60;;;0.70;;
73107;SDS011;61559;50.476;15.588;2023-07-20T00:43:51;1.80;;;0.90;;
73107;SDS011;61559;50.476;15.588;2023-07-20T00:46:22;1.80;;;0.80;;
73107;SDS011;61559;50.476;15.588;2023-07-20T00:48:54;2.20;;;1.00;;
73107;SDS011;61559;50.476;15.588;2023-07-20T00:51:26;1.20;;;0.80;;
73107;SDS011;61559;50.476;15.588;2023-07-20T00:53:58;1.30;;;0.70;;
73107;SDS011;61559;50.476;15.588;2023-07-20T00:56:30;1.30;;;0.90;;
73107;SDS011;61559;50.476;15.588;2023-07-20T00:59:01;1.50;;;0.90;;
73107;SDS011;61559;50.476;15.588;2023-07-20T01:01:32;1.40;;;1.20;;
73107;SDS011;61559;50.476;15.588;2023-07-20T01:04:04;1.50;;;1.00;;
73107;SDS011;61559;50.476;15.588;2023-07-20T01:06:39;1.20;;;0.80;;
73107;SDS011;61559;50.476;15.588;2023-07-20T01:09:19;1.20;;;0.70;;
73107;SDS011;61559;50.476;15.588;2023-07-20T01:11:57;1.20;;;0.90;;
73107;SDS011;61559;50.476;15.588;2023-07-20T01:14:31;1.60;;;1.00;;
73107;SDS011;61559;50.476;15.588;2023-07-20T01:17:03;3.40;;;1.10;;
73107;SDS011;61559;50.476;15.588;2023-07-20T01:19:35;1.20;;;1.00;;
73107;SDS011;61559;50.476;15.588;2023-07-20T01:22:09;1.20;;;0.90;;
73107;SDS011;61559;50.476;15.588;2023-07-20T01:24:56;1.30;;;0.90;;
73107;SDS011;61559;50.476;15.588;2023-07-20T01:27:51;2.00;;;0.90;;
73107;SDS011;61559;50.476;15.588;2023-07-20T01:30:50;2.20;;;1.00;;
73107;SDS011;61559;50.476;15.588;2023-07-20T01:33:25;2.00;;;0.80;;
73107;SDS011;61559;50.476;15.588;2023-07-20T01:35:57;2.60;;;1.10;;
73107;SDS011;61559;50.476;15.588;2023-07-20T01:38:30;3.20;;;0.90;;
73107;SDS011;61559;50.476;15.588;2023-07-20T01:41:01;1.90;;;1.10;;
73107;SDS011;61559;50.476;15.588;2023-07-20T01:43:33;2.20;;;1.10;;
73107;SDS011;61559;50.476;15.588;2023-07-20T01:46:04;2.40;;;0.90;;
73107;SDS011;61559;50.476;15.588;2023-07-20T01:48:36;2.00;;;1.00;;
73107;SDS011;61559;50.476;15.588;2023-07-20T01:51:07;1.30;;;0.90;;
73107;SDS011;61559;50.476;15.588;2023-07-20T01:53:38;2.00;;;1.10;;
73107;SDS011;61559;50.476;15.588;2023-07-20T01:56:09;0.90;;;0.80;;
73107;SDS011;61559;50.476;15.588;2023-07-20T01:58:40;3.20;;;0.90;;
73107;SDS011;61559;50.476;15.588;2023-07-20T02:01:12;2.00;;;1.00;;
73107;SDS011;61559;50.476;15.588;2023-07-20T02:03:43;2.40;;;1.10;;
73107;SDS011;61559;50.476;15.588;2023-07-20T02:06:14;1.80;;;1.20;;
73107;SDS011;61559;50.476;15.588;2023-07-20T02:08:45;3.00;;;1.00;;
73107;SDS011;61559;50.476;15.588;2023-07-20T02:11:17;1.20;;;1.10;;
73107;SDS011;61559;50.476;15.588;2023-07-20T02:13:48;1.40;;;0.90;;
73107;SDS011;61559;50.476;15.588;2023-07-20T02:16:19;2.20;;;0.90;;
73107;SDS011;61559;50.476;15.588;2023-07-20T02:18:51;1.20;;;0.80;;
73107;SDS011;61559;50.476;15.588;2023-07-20T02:21:25;2.40;;;1.00;;
73107;SDS011;61559;50.476;15.588;2023-07-20T02:23:56;2.40;;;1.10;;
73107;SDS011;61559;50.476;15.588;2023-07-20T02:26:28;2.00;;;1.10;;
73107;SDS011;61559;50.476;15.588;2023-07-20T02:28:59;1.50;;;1.30;;
73107;SDS011;61559;50.476;15.588;2023-07-20T02:31:32;1.60;;;0.90;;
73107;SDS011;61559;50.476;15.588;2023-07-20T02:34:05;1.20;;;0.90;;
73107;SDS011;61559;50.476;15.588;2023-07-20T02:36:37;1.40;;;1.00;;
73107;SDS011;61559;50.476;15.588;2023-07-20T02:39:10;1.40;;;0.90;;
73107;SDS011;61559;50.476;15.588;2023-07-20T02:41:42;1.40;;;0.90;;
73107;SDS011;61559;50.476;15.588;2023-07-20T02:44:14;1.00;;;0.90;;
73107;SDS011;61559;50.476;15.588;2023-07-20T02:46:45;1.50;;;1.10;;
73107;SDS011;61559;50.476;15.588;2023-07-20T02:49:18;1.90;;;1.10;;
73107;SDS011;61559;50.476;15.588;2023-07-20T02:51:49;1.20;;;0.90;;
73107;SDS011;61559;50.476;15.588;2023-07-20T02:54:20;1.00;;;0.70;;
73107;SDS011;61559;50.476;15.588;2023-07-20T02:56:51;1.10;;;1.00;;
73107;SDS011;61559;50.476;15.588;2023-07-20T02:59:23;1.40;;;0.90;;
73107;SDS011;61559;50.476;15.588;2023-07-20T03:01:54;1.60;;;1.00;;
73107;SDS011;61559;50.476;15.588;2023-07-20T03:04:27;1.20;;;0.90;;
73107;SDS011;61559;50.476;15.588;2023-07-20T03:06:58;1.00;;;0.70;;
73107;SDS011;61559;50.476;15.588;2023-07-20T03:09:30;1.10;;;0.80;;
73107;SDS011;61559;50.476;15.588;2023-07-20T03:12:01;2.10;;;1.00;;
73107;SDS011;61559;50.476;15.588;2023-07-20T03:14:33;1.70;;;1.40;;
73107;SDS011;61559;50.476;15.588;2023-07-20T03:17:04;1.40;;;1.10;;
73107;SDS011;61559;50.476;15.588;2023-07-20T03:19:36;1.60;;;1.00;;
73107;SDS011;61559;50.476;15.588;2023-07-20T03:22:07;1.40;;;0.90;;
73107;SDS011;61559;50.476;15.588;2023-07-20T03:24:38;0.90;;;0.90;;
73107;SDS011;61559;50.476;15.588;2023-07-20T03:27:09;2.50;;;1.20;;
73107;SDS011;61559;50.476;15.588;2023-07-20T03:29:40;1.50;;;1.00;;
73107;SDS011;61559;50.476;15.588;2023-07-20T03:32:12;2.80;;;0.90;;
73107;SDS011;61559;50.476;15.588;2023-07-20T03:34:43;3.90;;;1.00;;
73107;SDS011;61559;50.476;15.588;2023-07-20T03:37:17;1.70;;;1.20;;
73107;SDS011;61559;50.476;15.588;2023-07-20T03:39:48;1.50;;;1.00;;
73107;SDS011;61559;50.476;15.588;2023-07-20T03:42:19;1.60;;;1.00;;
73107;SDS011;61559;50.476;15.588;2023-07-20T03:44:50;2.00;;;1.30;;
73107;SDS011;61559;50.476;15.588;2023-07-20T03:47:21;1.20;;;1.00;;
73107;SDS011;61559;50.476;15.588;2023-07-20T03:49:53;1.20;;;0.90;;
73107;SDS011;61559;50.476;15.588;2023-07-20T03:52:24;1.30;;;1.20;;
73107;SDS011;61559;50.476;15.588;2023-07-20T03:54:55;1.20;;;0.90;;
73107;SDS011;61559;50.476;15.588;2023-07-20T03:57:27;1.90;;;1.20;;
73107;SDS011;61559;50.476;15.588;2023-07-20T04:00:00;1.70;;;1.10;;
73107;SDS011;61559;50.476;15.588;2023-07-20T04:02:35;1.90;;;1.00;;
73107;SDS011;61559;50.476;15.588;2023-07-20T04:05:06;1.50;;;0.90;;
73107;SDS011;61559;50.476;15.588;2023-07-20T04:07:37;1.70;;;1.10;;
73107;SDS011;61559;50.476;15.588;2023-07-20T04:10:09;3.00;;;1.10;;
73107;SDS011;61559;50.476;15.588;2023-07-20T04:12:40;2.00;;;1.30;;
73107;SDS011;61559;50.476;15.588;2023-07-20T04:15:12;1.80;;;1.20;;
73107;SDS011;61559;50.476;15.588;2023-07-20T04:17:43;1.20;;;1.10;;
73107;SDS011;61559;50.476;15.588;2023-07-20T04:20:15;2.60;;;1.10;;
73107;SDS011;61559;50.476;15.588;2023-07-20T04:22:47;1.80;;;1.30;;
73107;SDS011;61559;50.476;15.588;2023-07-20T04:25:18;1.30;;;1.10;;
73107;SDS011;61559;50.476;15.588;2023-07-20T04:27:49;2.90;;;1.40;;
73107;SDS011;61559;50.476;15.588;2023-07-20T04:30:21;1.60;;;1.30;;
73107;SDS011;61559;50.476;15.588;2023-07-20T04:32:53;1.20;;;1.00;;
73107;SDS011;61559;50.476;15.588;2023-07-20T04:38:22;1.80;;;1.10;;
73107;SDS011;61559;50.476;15.588;2023-07-20T04:40:54;1.80;;;1.50;;
73107;SDS011;61559;50.476;15.588;2023-07-20T04:43:25;2.30;;;1.50;;
73107;SDS011;61559;50.476;15.588;2023-07-20T04:45:59;2.20;;;1.50;;
73107;SDS011;61559;50.476;15.588;2023-07-20T04:48:30;2.30;;;1.80;;
73107;SDS011;61559;50.476;15.588;2023-07-20T04:51:01;2.80;;;1.70;;
73107;SDS011;61559;50.476;15.588;2023-07-20T04:53:32;2.20;;;1.40;;
73107;SDS011;61559;50.476;15.588;2023-07-20T04:56:03;1.70;;;1.40;;
73107;SDS011;61559;50.476;15.588;2023-07-20T04:58:34;2.30;;;1.70;;
73107;SDS011;61559;50.476;15.588;2023-07-20T05:01:06;2.60;;;1.20;;
73107;SDS011;61559;50.476;15.588;2023-07-20T05:03:37;2.60;;;1.40;;
73107;SDS011;61559;50.476;15.588;2023-07-20T05:06:08;2.50;;;1.40;;
73107;SDS011;61559;50.476;15.588;2023-07-20T05:08:39;1.90;;;1.40;;
73107;SDS011;61559;50.476;15.588;2023-07-20T05:11:10;3.20;;;2.10;;
73107;SDS011;61559;50.476;15.588;2023-07-20T05:13:44;2.80;;;1.90;;
73107;SDS011;61559;50.476;15.588;2023-07-20T05:16:15;2.40;;;1.50;;
73107;SDS011;61559;50.476;15.588;2023-07-20T05:18:47;3.00;;;2.00;;
73107;SDS011;61559;50.476;15.588;2023-07-20T05:21:18;4.10;;;1.80;;
73107;SDS011;61559;50.476;15.588;2023-07-20T05:23:49;2.80;;;2.10;;
73107;SDS011;61559;50.476;15.588;2023-07-20T05:26:20;2.70;;;2.40;;
73107;SDS011;61559;50.476;15.588;2023-07-20T05:28:51;2.90;;;2.30;;
73107;SDS011;61559;50.476;15.588;2023-07-20T05:31:22;4.50;;;2.80;;
73107;SDS011;61559;50.476;15.588;2023-07-20T05:33:54;4.60;;;3.30;;
73107;SDS011;61559;50.476;15.588;2023-07-20T05:36:25;5.40;;;3.20;;
73107;SDS011;61559;50.476;15.588;2023-07-20T05:38:56;6.30;;;4.30;;
73107;SDS011;61559;50.476;15.588;2023-07-20T05:41:27;7.70;;;4.20;;
73107;SDS011;61559;50.476;15.588;2023-07-20T05:43:58;5.60;;;3.90;;
73107;SDS011;61559;50.476;15.588;2023-07-20T05:46:29;4.40;;;3.60;;
73107;SDS011;61559;50.476;15.588;2023-07-20T05:49:18;5.90;;;3.90;;
73107;SDS011;61559;50.476;15.588;2023-07-20T05:51:49;5.40;;;4.50;;
73107;SDS011;61559;50.476;15.588;2023-07-20T05:54:20;5.50;;;4.20;;
73107;SDS011;61559;50.476;15.588;2023-07-20T05:56:51;5.40;;;4.40;;
73107;SDS011;61559;50.476;15.588;2023-07-20T05:59:22;4.10;;;3.70;;
73107;SDS011;61559;50.476;15.588;2023-07-20T06:01:54;6.70;;;3.80;;
73107;SDS011;61559;50.476;15.588;2023-07-20T06:04:25;7.00;;;4.00;;
73107;SDS011;61559;50.476;15.588;2023-07-20T06:06:56;5.00;;;3.50;;
73107;SDS011;61559;50.476;15.588;2023-07-20T06:09:29;6.10;;;3.40;;
73107;SDS011;61559;50.476;15.588;2023-07-20T06:12:00;3.50;;;3.20;;
73107;SDS011;61559;50.476;15.588;2023-07-20T06:14:31;3.30;;;2.90;;
73107;SDS011;61559;50.476;15.588;2023-07-20T06:17:02;4.10;;;3.20;;
73107;SDS011;61559;50.476;15.588;2023-07-20T06:19:33;2.50;;;1.90;;
73107;SDS011;61559;50.476;15.588;2023-07-20T06:22:05;3.70;;;2.70;;
73107;SDS011;61559;50.476;15.588;2023-07-20T06:24:36;3.10;;;2.10;;
73107;SDS011;61559;50.476;15.588;2023-07-20T06:27:07;2.30;;;2.10;;
73107;SDS011;61559;50.476;15.588;2023-07-20T06:29:38;3.00;;;1.80;;
73107;SDS011;61559;50.476;15.588;2023-07-20T06:32:09;3.30;;;2.10;;
73107;SDS011;61559;50.476;15.588;2023-07-20T06:34:42;3.00;;;1.80;;
73107;SDS011;61559;50.476;15.588;2023-07-20T06:37:13;2.10;;;1.80;;
73107;SDS011;61559;50.476;15.588;2023-07-20T06:39:44;2.90;;;1.50;;
73107;SDS011;61559;50.476;15.588;2023-07-20T06:42:18;3.30;;;1.90;;
73107;SDS011;61559;50.476;15.588;2023-07-20T06:44:49;1.90;;;1.60;;
73107;SDS011;61559;50.476;15.588;2023-07-20T06:47:21;2.10;;;1.50;;
73107;SDS011;61559;50.476;15.588;2023-07-20T06:49:52;3.00;;;1.60;;
73107;SDS011;61559;50.476;15.588;2023-07-20T06:52:23;2.30;;;1.30;;
73107;SDS011;61559;50.476;15.588;2023-07-20T06:54:54;3.30;;;1.60;;
73107;SDS011;61559;50.476;15.588;2023-07-20T06:57:31;2.20;;;1.40;;
73107;SDS011;61559;50.476;15.588;2023-07-20T07:00:02;2.20;;;1.60;;
73107;SDS011;61559;50.476;15.588;2023-07-20T07:02:35;2.10;;;1.30;;
73107;SDS011;61559;50.476;15.588;2023-07-20T07:05:08;1.90;;;1.50;;
73107;SDS011;61559;50.476;15.588;2023-07-20T07:07:44;3.00;;;1.40;;
73107;SDS011;61559;50.476;15.588;2023-07-20T07:10:15;5.00;;;1.60;;
73107;SDS011;61559;50.476;15.588;2023-07-20T07:12:46;1.70;;;1.50;;
73107;SDS011;61559;50.476;15.588;2023-07-20T07:15:18;2.80;;;1.30;;
73107;SDS011;61559;50.476;15.588;2023-07-20T07:17:50;1.90;;;1.50;;
73107;SDS011;61559;50.476;15.588;2023-07-20T07:20:21;2.50;;;1.40;;
73107;SDS011;61559;50.476;15.588;2023-07-20T07:22:53;1.70;;;1.40;;
73107;SDS011;61559;50.476;15.588;2023-07-20T07:25:25;2.80;;;1.90;;
73107;SDS011;61559;50.476;15.588;2023-07-20T07:27:56;1.90;;;1.70;;
73107;SDS011;61559;50.476;15.588;2023-07-20T07:30:27;2.10;;;1.40;;
73107;SDS011;61559;50.476;15.588;2023-07-20T07:33:01;4.30;;;1.50;;
73107;SDS011;61559;50.476;15.588;2023-07-20T07:35:32;2.20;;;1.30;;
73107;SDS011;61559;50.476;15.588;2023-07-20T07:38:04;3.20;;;1.50;;
73107;SDS011;61559;50.476;15.588;2023-07-20T07:40:55;1.90;;;1.30;;
73107;SDS011;61559;50.476;15.588;2023-07-20T07:43:27;1.90;;;1.00;;
73107;SDS011;61559;50.476;15.588;2023-07-20T07:45:58;4.70;;;1.40;;
73107;SDS011;61559;50.476;15.588;2023-07-20T07:48:30;1.50;;;1.20;;
73107;SDS011;61559;50.476;15.588;2023-07-20T07:51:01;1.40;;;1.20;;
73107;SDS011;61559;50.476;15.588;2023-07-20T07:53:32;1.90;;;1.30;;
73107;SDS011;61559;50.476;15.588;2023-07-20T07:56:06;1.30;;;1.20;;
73107;SDS011;61559;50.476;15.588;2023-07-20T07:58:37;1.10;;;0.90;;
73107;SDS011;61559;50.476;15.588;2023-07-20T08:01:08;1.90;;;1.10;;
73107;SDS011;61559;50.476;15.588;2023-07-20T08:03:39;1.00;;;0.90;;
73107;SDS011;61559;50.476;15.588;2023-07-20T08:06:11;0.80;;;0.80;;
73107;SDS011;61559;50.476;15.588;2023-07-20T08:08:42;1.40;;;1.00;;
73107;SDS011;61559;50.476;15.588;2023-07-20T08:11:13;1.70;;;0.90;;
73107;SDS011;61559;50.476;15.588;2023-07-20T08:13:46;1.20;;;0.90;;
73107;SDS011;61559;50.476;15.588;2023-07-20T08:16:17;2.20;;;0.80;;
73107;SDS011;61559;50.476;15.588;2023-07-20T08:18:48;1.70;;;0.90;;
73107;SDS011;61559;50.476;15.588;2023-07-20T08:21:20;2.20;;;0.70;;
73107;SDS011;61559;50.476;15.588;2023-07-20T08:23:51;1.00;;;0.90;;
73107;SDS011;61559;50.476;15.588;2023-07-20T08:26:22;2.20;;;1.30;;
73107;SDS011;61559;50.476;15.588;2023-07-20T08:28:55;3.20;;;1.00;;
73107;SDS011;61559;50.476;15.588;2023-07-20T08:31:26;0.90;;;0.70;;
73107;SDS011;61559;50.476;15.588;2023-07-20T08:33:57;2.10;;;1.20;;
73107;SDS011;61559;50.476;15.588;2023-07-20T08:36:32;2.70;;;1.00;;
73107;SDS011;61559;50.476;15.588;2023-07-20T08:39:04;1.10;;;0.90;;
73107;SDS011;61559;50.476;15.588;2023-07-20T08:41:36;3.80;;;1.10;;
73107;SDS011;61559;50.476;15.588;2023-07-20T08:44:07;1.70;;;0.90;;
73107;SDS011;61559;50.476;15.588;2023-07-20T08:46:39;4.50;;;1.00;;
73107;SDS011;61559;50.476;15.588;2023-07-20T08:49:12;1.30;;;1.10;;
73107;SDS011;61559;50.476;15.588;2023-07-20T08:51:44;1.30;;;0.80;;
73107;SDS011;61559;50.476;15.588;2023-07-20T08:54:18;1.10;;;0.90;;
73107;SDS011;61559;50.476;15.588;2023-07-20T08:56:50;3.20;;;1.20;;
73107;SDS011;61559;50.476;15.588;2023-07-20T08:59:23;2.60;;;1.10;;
73107;SDS011;61559;50.476;15.588;2023-07-20T09:01:57;1.90;;;1.30;;
73107;SDS011;61559;50.476;15.588;2023-07-20T09:04:29;1.90;;;1.00;;
73107;SDS011;61559;50.476;15.588;2023-07-20T09:07:01;1.70;;;1.00;;
73107;SDS011;61559;50.476;15.588;2023-07-20T09:09:40;1.30;;;0.90;;
73107;SDS011;61559;50.476;15.588;2023-07-20T09:12:15;1.00;;;0.80;;
73107;SDS011;61559;50.476;15.588;2023-07-20T09:14:46;1.10;;;0.90;;
73107;SDS011;61559;50.476;15.588;2023-07-20T09:17:18;2.40;;;1.00;;
73107;SDS011;61559;50.476;15.588;2023-07-20T09:19:50;2.50;;;0.90;;
73107;SDS011;61559;50.476;15.588;2023-07-20T09:22:22;2.50;;;1.00;;
73107;SDS011;61559;50.476;15.588;2023-07-20T09:25:00;2.00;;;1.10;;
73107;SDS011;61559;50.476;15.588;2023-07-20T09:27:36;2.10;;;1.00;;
73107;SDS011;61559;50.476;15.588;2023-07-20T09:30:08;1.30;;;1.00;;
73107;SDS011;61559;50.476;15.588;2023-07-20T09:32:45;1.20;;;1.00;;
73107;SDS011;61559;50.476;15.588;2023-07-20T09:35:22;2.20;;;1.30;;
73107;SDS011;61559;50.476;15.588;2023-07-20T09:38:00;1.60;;;1.00;;
73107;SDS011;61559;50.476;15.588;2023-07-20T09:40:38;1.80;;;1.10;;
73107;SDS011;61559;50.476;15.588;2023-07-20T09:43:12;1.50;;;0.70;;
73107;SDS011;61559;50.476;15.588;2023-07-20T09:45:49;1.80;;;1.00;;
73107;SDS011;61559;50.476;15.588;2023-07-20T09:48:26;2.40;;;1.00;;
73107;SDS011;61559;50.476;15.588;2023-07-20T09:51:01;1.40;;;1.10;;
73107;SDS011;61559;50.476;15.588;2023-07-20T09:53:36;1.40;;;0.90;;
73107;SDS011;61559;50.476;15.588;2023-07-20T09:56:08;2.50;;;1.30;;
73107;SDS011;61559;50.476;15.588;2023-07-20T09:58:44;1.90;;;0.90;;
73107;SDS011;61559;50.476;15.588;2023-07-20T10:01:20;3.60;;;0.90;;
73107;SDS011;61559;50.476;15.588;2023-07-20T10:03:54;1.60;;;0.80;;
73107;SDS011;61559;50.476;15.588;2023-07-20T10:06:30;2.70;;;1.10;;
73107;SDS011;61559;50.476;15.588;2023-07-20T10:09:04;1.20;;;0.80;;
73107;SDS011;61559;50.476;15.588;2023-07-20T10:11:37;2.20;;;1.10;;
73107;SDS011;61559;50.476;15.588;2023-07-20T10:14:12;2.00;;;1.00;;
73107;SDS011;61559;50.476;15.588;2023-07-20T10:16:51;1.50;;;1.30;;
73107;SDS011;61559;50.476;15.588;2023-07-20T10:19:29;1.30;;;1.20;;
73107;SDS011;61559;50.476;15.588;2023-07-20T10:22:19;1.90;;;1.50;;
73107;SDS011;61559;50.476;15.588;2023-07-20T10:24:56;1.70;;;1.50;;
73107;SDS011;61559;50.476;15.588;2023-07-20T10:27:31;2.40;;;1.40;;
73107;SDS011;61559;50.476;15.588;2023-07-20T10:30:02;2.40;;;1.70;;
73107;SDS011;61559;50.476;15.588;2023-07-20T10:32:35;1.80;;;1.60;;
73107;SDS011;61559;50.476;15.588;2023-07-20T10:35:13;2.00;;;1.60;;
73107;SDS011;61559;50.476;15.588;2023-07-20T10:37:52;2.50;;;1.40;;
73107;SDS011;61559;50.476;15.588;2023-07-20T10:40:33;1.90;;;1.00;;
73107;SDS011;61559;50.476;15.588;2023-07-20T10:43:07;1.40;;;1.30;;
73107;SDS011;61559;50.476;15.588;2023-07-20T10:45:48;1.70;;;0.90;;
73107;SDS011;61559;50.476;15.588;2023-07-20T10:48:20;0.90;;;0.80;;
73107;SDS011;61559;50.476;15.588;2023-07-20T10:53:49;1.70;;;1.00;;
73107;SDS011;61559;50.476;15.588;2023-07-20T10:56:23;1.00;;;0.90;;
73107;SDS011;61559;50.476;15.588;2023-07-20T10:58:56;1.00;;;0.70;;
73107;SDS011;61559;50.476;15.588;2023-07-20T11:01:30;1.10;;;0.80;;
73107;SDS011;61559;50.476;15.588;2023-07-20T11:04:05;0.80;;;0.80;;
73107;SDS011;61559;50.476;15.588;2023-07-20T11:06:39;0.70;;;0.70;;
73107;SDS011;61559;50.476;15.588;2023-07-20T11:09:14;0.90;;;0.70;;
73107;SDS011;61559;50.476;15.588;2023-07-20T11:11:47;0.90;;;0.80;;
73107;SDS011;61559;50.476;15.588;2023-07-20T11:14:22;2.00;;;0.80;;
73107;SDS011;61559;50.476;15.588;2023-07-20T11:16:54;1.20;;;0.80;;
73107;SDS011;61559;50.476;15.588;2023-07-20T11:19:40;1.20;;;0.90;;
73107;SDS011;61559;50.476;15.588;2023-07-20T11:22:15;0.70;;;0.70;;
73107;SDS011;61559;50.476;15.588;2023-07-20T11:24:47;1.20;;;1.00;;
73107;SDS011;61559;50.476;15.588;2023-07-20T11:27:18;0.90;;;0.70;;
73107;SDS011;61559;50.476;15.588;2023-07-20T11:29:50;0.90;;;0.70;;
73107;SDS011;61559;50.476;15.588;2023-07-20T11:32:22;1.20;;;1.00;;
73107;SDS011;61559;50.476;15.588;2023-07-20T11:34:53;1.70;;;1.10;;
73107;SDS011;61559;50.476;15.588;2023-07-20T11:37:25;1.00;;;0.90;;
73107;SDS011;61559;50.476;15.588;2023-07-20T11:39:57;1.40;;;0.90;;
73107;SDS011;61559;50.476;15.588;2023-07-20T11:42:29;1.70;;;1.00;;
73107;SDS011;61559;50.476;15.588;2023-07-20T11:45:05;1.50;;;1.10;;
73107;SDS011;61559;50.476;15.588;2023-07-20T11:47:40;0.80;;;0.80;;
73107;SDS011;61559;50.476;15.588;2023-07-20T11:50:12;1.80;;;1.00;;
73107;SDS011;61559;50.476;15.588;2023-07-20T11:52:44;1.20;;;0.80;;
73107;SDS011;61559;50.476;15.588;2023-07-20T11:55:16;1.50;;;1.00;;
73107;SDS011;61559;50.476;15.588;2023-07-20T12:00:33;0.90;;;0.80;;
73107;SDS011;61559;50.476;15.588;2023-07-20T12:03:06;0.80;;;0.70;;
73107;SDS011;61559;50.476;15.588;2023-07-20T12:05:40;1.20;;;1.00;;
73107;SDS011;61559;50.476;15.588;2023-07-20T12:08:28;1.70;;;1.00;;
73107;SDS011;61559;50.476;15.588;2023-07-20T12:10:59;2.70;;;1.20;;
73107;SDS011;61559;50.476;15.588;2023-07-20T12:13:37;1.30;;;1.00;;
73107;SDS011;61559;50.476;15.588;2023-07-20T12:16:12;1.10;;;1.00;;
73107;SDS011;61559;50.476;15.588;2023-07-20T12:18:45;0.90;;;0.90;;
73107;SDS011;61559;50.476;15.588;2023-07-20T12:21:16;1.10;;;0.80;;
73107;SDS011;61559;50.476;15.588;2023-07-20T12:23:50;1.10;;;1.00;;
73107;SDS011;61559;50.476;15.588;2023-07-20T12:26:21;1.70;;;1.10;;
73107;SDS011;61559;50.476;15.588;2023-07-20T12:28:53;1.80;;;1.20;;
73107;SDS011;61559;50.476;15.588;2023-07-20T12:31:25;1.70;;;0.90;;
73107;SDS011;61559;50.476;15.588;2023-07-20T12:33:58;0.90;;;0.90;;
73107;SDS011;61559;50.476;15.588;2023-07-20T12:36:29;1.20;;;0.90;;
73107;SDS011;61559;50.476;15.588;2023-07-20T12:39:01;0.90;;;0.80;;
73107;SDS011;61559;50.476;15.588;2023-07-20T12:41:33;1.00;;;0.80;;
73107;SDS011;61559;50.476;15.588;2023-07-20T12:44:04;1.10;;;0.90;;
73107;SDS011;61559;50.476;15.588;2023-07-20T12:46:35;1.00;;;0.90;;
73107;SDS011;61559;50.476;15.588;2023-07-20T12:49:07;2.60;;;0.90;;
73107;SDS011;61559;50.476;15.588;2023-07-20T12:51:38;1.00;;;0.90;;
73107;SDS011;61559;50.476;15.588;2023-07-20T12:54:10;1.90;;;0.80;;
73107;SDS011;61559;50.476;15.588;2023-07-20T12:56:41;0.90;;;0.80;;
73107;SDS011;61559;50.476;15.588;2023-07-20T12:59:15;1.30;;;1.00;;
73107;SDS011;61559;50.476;15.588;2023-07-20T13:01:46;1.30;;;1.00;;
73107;SDS011;61559;50.476;15.588;2023-07-20T13:04:17;0.90;;;0.80;;
73107;SDS011;61559;50.476;15.588;2023-07-20T13:06:49;2.10;;;0.90;;
73107;SDS011;61559;50.476;15.588;2023-07-20T13:09:20;0.70;;;0.70;;
73107;SDS011;61559;50.476;15.588;2023-07-20T13:11:51;1.00;;;0.90;;
73107;SDS011;61559;50.476;15.588;2023-07-20T13:14:22;1.00;;;0.90;;
73107;SDS011;61559;50.476;15.588;2023-07-20T13:16:53;1.10;;;0.90;;
73107;SDS011;61559;50.476;15.588;2023-07-20T13:19:25;2.50;;;0.90;;
73107;SDS011;61559;50.476;15.588;2023-07-20T13:21:58;1.00;;;0.70;;
73107;SDS011;61559;50.476;15.588;2023-07-20T13:24:29;1.20;;;0.80;;
73107;SDS011;61559;50.476;15.588;2023-07-20T13:27:00;2.00;;;0.80;;
73107;SDS011;61559;50.476;15.588;2023-07-20T13:29:33;1.00;;;0.90;;
73107;SDS011;61559;50.476;15.588;2023-07-20T13:32:05;0.90;;;0.70;;
73107;SDS011;61559;50.476;15.588;2023-07-20T13:34:37;1.20;;;0.90;;
73107;SDS011;61559;50.476;15.588;2023-07-20T13:37:08;1.30;;;0.80;;
73107;SDS011;61559;50.476;15.588;2023-07-20T13:39:40;1.40;;;0.90;;
73107;SDS011;61559;50.476;15.588;2023-07-20T13:42:12;1.30;;;0.90;;
73107;SDS011;61559;50.476;15.588;2023-07-20T13:44:44;1.40;;;0.90;;
73107;SDS011;61559;50.476;15.588;2023-07-20T13:47:16;0.90;;;0.80;;
73107;SDS011;61559;50.476;15.588;2023-07-20T13:49:49;1.40;;;0.70;;
73107;SDS011;61559;50.476;15.588;2023-07-20T13:52:32;0.60;;;0.60;;
73107;SDS011;61559;50.476;15.588;2023-07-20T13:55:08;0.80;;;0.70;;
73107;SDS011;61559;50.476;15.588;2023-07-20T13:57:39;0.70;;;0.70;;
73107;SDS011;61559;50.476;15.588;2023-07-20T14:00:12;0.70;;;0.70;;
73107;SDS011;61559;50.476;15.588;2023-07-20T14:02:46;0.80;;;0.70;;
73107;SDS011;61559;50.476;15.588;2023-07-20T14:05:19;2.30;;;0.70;;
73107;SDS011;61559;50.476;15.588;2023-07-20T14:07:53;0.90;;;0.90;;
73107;SDS011;61559;50.476;15.588;2023-07-20T14:10:25;0.70;;;0.70;;
73107;SDS011;61559;50.476;15.588;2023-07-20T14:12:56;1.40;;;0.90;;
73107;SDS011;61559;50.476;15.588;2023-07-20T14:15:27;1.30;;;0.70;;
73107;SDS011;61559;50.476;15.588;2023-07-20T14:17:59;1.40;;;0.80;;
73107;SDS011;61559;50.476;15.588;2023-07-20T14:20:31;1.50;;;0.90;;
73107;SDS011;61559;50.476;15.588;2023-07-20T14:23:06;1.20;;;0.70;;
73107;SDS011;61559;50.476;15.588;2023-07-20T14:25:37;1.10;;;0.80;;
73107;SDS011;61559;50.476;15.588;2023-07-20T14:28:08;2.20;;;0.90;;
73107;SDS011;61559;50.476;15.588;2023-07-20T14:30:40;1.70;;;0.90;;
73107;SDS011;61559;50.476;15.588;2023-07-20T14:33:11;1.20;;;0.80;;
73107;SDS011;61559;50.476;15.588;2023-07-20T14:35:42;1.10;;;1.00;;
73107;SDS011;61559;50.476;15.588;2023-07-20T14:38:14;2.30;;;0.90;;
73107;SDS011;61559;50.476;15.588;2023-07-20T14:40:45;1.90;;;0.90;;
73107;SDS011;61559;50.476;15.588;2023-07-20T14:43:20;1.20;;;0.90;;
73107;SDS011;61559;50.476;15.588;2023-07-20T14:45:51;2.70;;;1.10;;
73107;SDS011;61559;50.476;15.588;2023-07-20T14:48:23;1.80;;;1.00;;
73107;SDS011;61559;50.476;15.588;2023-07-20T14:50:54;2.00;;;1.00;;
73107;SDS011;61559;50.476;15.588;2023-07-20T14:53:28;1.20;;;1.10;;
73107;SDS011;61559;50.476;15.588;2023-07-20T14:56:02;2.30;;;1.20;;
73107;SDS011;61559;50.476;15.588;2023-07-20T14:58:35;1.30;;;0.90;;
73107;SDS011;61559;50.476;15.588;2023-07-20T15:01:06;1.20;;;1.10;;
73107;SDS011;61559;50.476;15.588;2023-07-20T15:03:38;1.10;;;1.00;;
73107;SDS011;61559;50.476;15.588;2023-07-20T15:06:11;1.00;;;0.90;;
73107;SDS011;61559;50.476;15.588;2023-07-20T15:08:43;1.90;;;1.50;;
73107;SDS011;61559;50.476;15.588;2023-07-20T15:11:14;1.60;;;1.30;;
73107;SDS011;61559;50.476;15.588;2023-07-20T15:13:45;2.50;;;1.30;;